Time;durP1;ratioP1;P1;durP2;ratioP2;P2;SDS_P1;SDS_P2;PMS_P1;PMS_P2;Temp;Humidity;BMP_temperature;BMP_pressure;BME280_temperature;BME280_humidity;BME280_pressure;Samples;Min_cycle;Max_cycle;Signal;HPM_P1;HPM_P2
2022/08/19 00:00:15;;;;;;;9.18;8.48;;;26.00;56.60;26.80;100479.00;;;;5006425;28;20275;-43
2022/08/19 00:02:41;;;;;;;8.57;7.95;;;26.00;56.70;26.80;100483.00;;;;5006242;28;20187;-42
2022/08/19 00:05:08;;;;;;;8.88;8.18;;;25.90;56.60;26.80;100481.00;;;;5006594;28;20171;-44
2022/08/19 00:07:33;;;;;;;9.13;8.43;;;25.90;56.60;26.80;100491.00;;;;5006608;28;20219;-44
2022/08/19 00:09:59;;;;;;;8.80;8.20;;;25.90;56.60;26.80;100492.00;;;;5008768;28;20382;-42
2022/08/19 00:12:25;;;;;;;8.82;8.23;;;25.90;56.60;26.80;100485.00;;;;5008107;28;20179;-43
2022/08/19 00:14:52;;;;;;;9.43;8.63;;;26.00;56.70;26.70;100483.00;;;;5006427;28;20172;-43
2022/08/19 00:17:18;;;;;;;8.73;7.97;;;25.90;56.60;26.70;100490.00;;;;5006280;28;20407;-43
2022/08/19 00:19:44;;;;;;;9.07;8.38;;;25.90;56.60;26.70;100488.00;;;;5005993;28;20771;-44
2022/08/19 00:22:10;;;;;;;8.40;7.80;;;25.90;56.60;26.70;100484.00;;;;5006405;28;20203;-43
2022/08/19 00:24:38;;;;;;;9.50;8.80;;;25.90;56.70;26.70;100479.00;;;;5006328;28;20171;-44
2022/08/19 00:27:04;;;;;;;9.32;8.73;;;25.80;56.70;26.70;100487.00;;;;5005844;28;20291;-44
2022/08/19 00:29:30;;;;;;;9.20;8.60;;;25.80;56.70;26.70;100482.00;;;;5005818;28;20175;-45
2022/08/19 00:31:58;;;;;;;9.10;8.40;;;25.80;56.70;26.60;100479.00;;;;5005600;28;20398;-43
2022/08/19 00:34:24;;;;;;;9.10;8.40;;;25.80;56.70;26.60;100475.00;;;;5004482;28;20176;-44
2022/08/19 00:36:50;;;;;;;9.32;8.68;;;25.80;56.70;26.60;100485.00;;;;5005240;28;20259;-44
2022/08/19 00:39:16;;;;;;;8.82;8.23;;;25.70;56.60;26.60;100487.00;;;;5005425;28;20176;-43
2022/08/19 00:41:43;;;;;;;8.90;8.30;;;25.70;56.80;26.60;100496.00;;;;5005455;28;20199;-44
2022/08/19 00:44:13;;;;;;;9.40;8.70;;;25.70;56.80;26.60;100493.00;;;;5005945;28;20171;-43
2022/08/19 00:46:40;;;;;;;8.95;8.35;;;25.70;56.80;26.50;100486.00;;;;5005575;28;20192;-44
2022/08/19 00:49:36;;;;;;;9.40;8.50;;;25.70;56.60;26.50;100485.00;;;;5005482;28;20713;-43
2022/08/19 00:52:12;;;;;;;8.85;8.18;;;25.80;56.70;26.50;100473.00;;;;5004383;28;20175;-42
2022/08/19 00:54:38;;;;;;;9.35;8.48;;;25.70;56.70;26.50;100481.00;;;;5004500;28;20777;-44
2022/08/19 00:57:07;;;;;;;9.27;8.57;;;25.70;56.70;26.50;100483.00;;;;5004119;28;20500;-44
2022/08/19 00:59:35;;;;;;;9.50;8.80;;;25.70;56.80;26.50;100488.00;;;;5004174;28;20176;-44
2022/08/19 01:02:01;;;;;;;8.45;7.82;;;25.70;56.80;26.50;100476.00;;;;5005726;28;20214;-42
2022/08/19 01:04:27;;;;;;;8.48;7.78;;;25.70;56.70;26.50;100481.00;;;;5007968;28;20172;-44
2022/08/19 01:06:52;;;;;;;8.38;7.88;;;25.70;56.90;26.40;100486.00;;;;5008856;28;20453;-44
2022/08/19 01:09:18;;;;;;;9.02;8.38;;;25.60;56.80;26.40;100486.00;;;;5012095;28;20179;-44
2022/08/19 01:11:44;;;;;;;8.55;7.97;;;25.60;56.80;26.40;100487.00;;;;5016600;28;20446;-43
2022/08/19 01:14:10;;;;;;;8.43;7.93;;;25.60;56.90;26.40;100487.00;;;;5016920;28;20183;-42
2022/08/19 01:16:37;;;;;;;8.40;7.80;;;25.60;56.90;26.40;100489.00;;;;5010339;28;20172;-45
2022/08/19 01:19:03;;;;;;;8.88;8.27;;;25.60;56.90;26.40;100490.00;;;;5007940;28;20672;-43
2022/08/19 01:21:35;;;;;;;8.85;8.25;;;25.50;56.80;26.30;100489.00;;;;5008181;28;20393;-44
2022/08/19 01:24:00;;;;;;;9.07;8.30;;;25.60;56.90;26.30;100483.00;;;;4995256;28;20159;-43
2022/08/19 01:26:26;;;;;;;8.85;8.10;;;25.50;56.80;26.30;100485.00;;;;5010200;28;20164;-43
2022/08/19 01:28:54;;;;;;;8.77;8.18;;;25.50;56.80;26.30;100490.00;;;;5008498;28;20674;-42
2022/08/19 01:31:23;;;;;;;8.77;8.18;;;25.50;56.80;26.30;100485.00;;;;5008513;28;20179;-45
2022/08/19 01:33:50;;;;;;;8.77;8.07;;;25.50;56.80;26.30;100474.00;;;;5008632;28;20180;-43
2022/08/19 01:36:36;;;;;;;8.60;7.90;;;25.50;56.80;26.30;100479.00;;;;5008403;28;20233;-44
2022/08/19 01:39:06;;;;;;;9.00;8.30;;;25.50;56.80;26.20;100469.00;;;;5008223;28;20195;-43
2022/08/19 01:41:32;;;;;;;9.27;8.57;;;25.50;56.80;26.20;100476.00;;;;5008074;28;20184;-43
2022/08/19 01:43:58;;;;;;;9.23;8.50;;;25.40;56.90;26.20;100480.00;;;;5008355;28;20175;-44
2022/08/19 01:46:24;;;;;;;8.73;8.13;;;25.40;56.80;26.20;100483.00;;;;5007984;28;20227;-43
2022/08/19 01:48:50;;;;;;;8.48;7.93;;;25.40;56.90;26.20;100485.00;;;;5008045;28;20195;-44
2022/08/19 01:51:16;;;;;;;9.23;8.63;;;25.40;56.80;26.20;100477.00;;;;5008157;28;20548;-43
2022/08/19 01:53:41;;;;;;;9.15;8.45;;;25.40;56.80;26.20;100471.00;;;;5008238;28;20655;-43
2022/08/19 01:56:07;;;;;;;8.73;8.13;;;25.40;56.70;26.20;100465.00;;;;5008065;28;20243;-44
2022/08/19 01:58:43;;;;;;;8.60;8.00;;;25.40;56.70;26.10;100467.00;;;;5007790;28;20599;-43
2022/08/19 02:01:08;;;;;;;8.85;8.25;;;25.40;56.70;26.10;100465.00;;;;5006632;28;20670;-44
2022/08/19 02:03:34;;;;;;;8.80;8.20;;;25.30;56.70;26.10;100455.00;;;;5006619;28;20258;-43
2022/08/19 02:06:02;;;;;;;8.95;8.25;;;25.30;56.70;26.10;100462.00;;;;5006962;28;20176;-43
2022/08/19 02:08:28;;;;;;;8.57;7.97;;;25.30;56.80;26.10;100461.00;;;;5007549;28;20203;-43
2022/08/19 02:10:54;;;;;;;9.15;8.55;;;25.30;56.80;26.10;100459.00;;;;5008008;28;20186;-42
2022/08/19 02:13:20;;;;;;;9.23;8.60;;;25.30;56.90;26.10;100470.00;;;;5007298;28;20176;-43
2022/08/19 02:15:45;;;;;;;8.63;7.93;;;25.30;56.70;26.00;100469.00;;;;5006924;28;20259;-45
2022/08/19 02:18:12;;;;;;;8.70;8.10;;;25.30;56.70;26.00;100479.00;;;;5007635;28;20215;-44
2022/08/19 02:20:38;;;;;;;8.95;8.25;;;25.20;56.80;26.00;100476.00;;;;5007783;28;20199;-42
2022/08/19 02:23:04;;;;;;;9.27;8.52;;;25.20;56.70;26.00;100478.00;;;;5007296;28;20185;-44
2022/08/19 02:25:30;;;;;;;9.10;8.40;;;25.20;57.20;25.80;100465.00;;;;5007824;28;20167;-44
2022/08/19 02:27:56;;;;;;;9.02;8.32;;;25.20;56.60;26.00;100465.00;;;;5007135;28;20279;-43
2022/08/19 02:30:22;;;;;;;9.30;8.70;;;25.20;56.60;26.00;100468.00;;;;5007516;28;20164;-45
2022/08/19 02:32:48;;;;;;;8.52;7.93;;;25.10;56.70;25.90;100476.00;;;;5007284;28;20354;-43
2022/08/19 02:35:14;;;;;;;8.77;8.18;;;25.20;56.60;25.90;100479.00;;;;5007316;28;20172;-44
2022/08/19 02:40:25;;;;;;;8.15;7.65;;;25.20;56.60;25.90;100481.00;;;;5007325;28;20283;-44
2022/08/19 02:42:51;;;;;;;8.48;7.90;;;25.10;56.50;25.90;100489.00;;;;5007119;28;20246;-44
2022/08/19 02:45:17;;;;;;;8.20;7.60;;;25.10;56.50;25.90;100491.00;;;;5007270;28;20650;-44
2022/08/19 02:47:43;;;;;;;8.52;7.93;;;25.10;56.50;25.90;100483.00;;;;5007728;28;20196;-44
2022/08/19 02:50:08;;;;;;;8.60;8.00;;;25.10;56.50;25.80;100481.00;;;;5009831;28;20646;-44
2022/08/19 02:52:34;;;;;;;8.50;7.90;;;25.10;56.50;25.80;100481.00;;;;5008371;28;20167;-44
2022/08/19 02:55:00;;;;;;;8.18;7.57;;;25.00;56.50;25.80;100487.00;;;;5006998;28;20176;-44
2022/08/19 02:57:26;;;;;;;9.15;8.32;;;25.00;57.10;25.80;100489.00;;;;5006443;28;20221;-44
2022/08/19 02:59:52;;;;;;;8.13;7.45;;;25.00;56.80;25.80;100489.00;;;;5006674;28;20643;-44
2022/08/19 03:02:18;;;;;;;8.95;8.35;;;25.00;56.60;25.80;100496.00;;;;5006785;28;20196;-44
2022/08/19 03:04:44;;;;;;;8.77;8.18;;;25.00;56.90;25.80;100493.00;;;;5022142;28;20168;-44
2022/08/19 03:07:09;;;;;;;8.93;8.30;;;25.00;56.80;25.80;100496.00;;;;5022066;28;20198;-43
2022/08/19 03:09:37;;;;;;;8.35;7.65;;;25.00;56.70;25.70;100493.00;;;;5021755;28;20179;-44
2022/08/19 03:12:03;;;;;;;8.13;7.53;;;24.90;56.60;25.70;100493.00;;;;5006663;28;20755;-44
2022/08/19 03:14:36;;;;;;;9.32;8.50;;;25.00;56.60;25.70;100481.00;;;;5021187;28;20164;-44
2022/08/19 03:17:03;;;;;;;8.48;7.88;;;24.90;56.60;25.70;100484.00;;;;5006476;28;20278;-44
2022/08/19 03:19:28;;;;;;;8.30;7.70;;;24.90;56.50;25.70;100489.00;;;;5006608;28;20662;-43
2022/08/19 03:21:55;;;;;;;8.00;7.40;;;25.00;56.50;25.70;100481.00;;;;5006738;28;20207;-44
2022/08/19 03:24:21;;;;;;;7.90;7.35;;;24.90;56.50;25.60;100483.00;;;;5005773;28;20183;-44
2022/08/19 03:26:52;;;;;;;8.52;7.93;;;24.90;56.50;25.60;100482.00;;;;5021166;28;20164;-44
2022/08/19 03:29:18;;;;;;;8.75;8.00;;;24.90;56.80;25.60;100482.00;;;;5006362;28;20179;-44
2022/08/19 03:31:44;;;;;;;8.30;7.60;;;24.90;56.70;25.60;100492.00;;;;5006387;28;20761;-44
2022/08/19 03:34:17;;;;;;;9.00;8.40;;;24.80;56.90;25.60;100492.00;;;;5021184;28;20184;-44
2022/08/19 03:36:44;;;;;;;9.38;8.57;;;24.80;56.90;25.60;100496.00;;;;5006449;28;20170;-44
2022/08/19 03:39:10;;;;;;;9.55;8.68;;;24.80;56.90;25.60;100499.00;;;;5006034;28;20769;-44
2022/08/19 03:41:40;;;;;;;9.40;8.60;;;24.70;57.60;25.60;100502.00;;;;5006746;28;20183;-44
2022/08/19 03:44:08;;;;;;;9.45;8.55;;;24.70;56.80;25.50;100502.00;;;;5009001;28;20202;-45
2022/08/19 03:46:34;;;;;;;13.70;12.60;;;24.70;56.70;25.50;100499.00;;;;5024816;28;20289;-45
2022/08/19 03:49:03;;;;;;;12.37;11.47;;;24.70;56.80;25.50;100436.00;;;;5025001;28;20667;-44
2022/08/19 03:51:32;;;;;;;11.45;10.65;;;24.70;56.90;25.50;100498.00;;;;5024890;28;20675;-44
2022/08/19 03:53:59;;;;;;;9.90;9.20;;;24.70;56.90;25.50;100494.00;;;;5025164;28;20173;-44
2022/08/19 03:56:26;;;;;;;9.90;9.10;;;24.70;56.80;25.40;100509.00;;;;5025325;28;20178;-43
2022/08/19 03:58:52;;;;;;;9.75;9.05;;;24.70;56.70;25.20;100506.00;;;;5040420;28;20182;-43
2022/08/19 04:01:19;;;;;;;9.73;9.02;;;24.70;56.90;25.40;100506.00;;;;5025202;28;20209;-44
2022/08/19 04:03:48;;;;;;;8.97;8.27;;;24.70;56.90;25.40;100501.00;;;;5025328;28;20171;-44
2022/08/19 04:06:21;;;;;;;9.20;8.50;;;24.70;56.80;25.40;100505.00;;;;5025239;28;20566;-44
2022/08/19 04:08:48;;;;;;;10.00;9.20;;;24.60;56.80;25.40;100516.00;;;;5024553;28;20202;-44
2022/08/19 04:11:24;;;;;;;8.60;8.00;;;24.60;57.30;25.40;100521.00;;;;5025108;28;20607;-44
2022/08/19 04:13:51;;;;;;;8.70;8.10;;;24.50;57.00;25.30;100512.00;;;;5025341;28;20237;-43
2022/08/19 04:16:20;;;;;;;8.40;7.80;;;24.50;56.90;25.30;100510.00;;;;5024610;28;20221;-44
2022/08/19 04:18:47;;;;;;;8.10;7.50;;;24.60;56.80;25.30;100508.00;;;;5024937;28;20488;-42
2022/08/19 04:21:21;;;;;;;8.33;7.67;;;24.50;56.70;25.30;100527.00;;;;5024802;28;20237;-44
2022/08/19 04:23:47;;;;;;;8.07;7.50;;;24.60;56.80;25.30;100515.00;;;;5024976;28;20278;-43
2022/08/19 04:26:27;;;;;;;8.43;7.77;;;24.50;56.70;25.30;100521.00;;;;5024639;28;20174;-43
2022/08/19 04:28:54;;;;;;;8.82;8.13;;;24.50;56.90;25.30;100521.00;;;;5024576;28;20194;-44
2022/08/19 04:31:22;;;;;;;8.87;8.10;;;24.40;56.80;25.20;100530.00;;;;5024747;28;20194;-44
2022/08/19 04:33:48;;;;;;;9.00;8.30;;;24.40;57.40;25.20;100519.00;;;;5024872;28;20545;-44
2022/08/19 04:36:29;;;;;;;8.87;7.97;;;24.40;57.10;25.20;100520.00;;;;5025049;28;20179;-45
2022/08/19 04:38:57;;;;;;;8.80;8.10;;;24.40;57.00;25.20;100519.00;;;;5029005;28;20687;-44
2022/08/19 04:44:07;;;;;;;8.65;7.95;;;24.40;56.80;25.20;100523.00;;;;5028995;28;20249;-44
2022/08/19 04:46:33;;;;;;;8.73;8.03;;;24.40;57.00;25.20;100525.00;;;;5028996;28;20637;-43
2022/08/19 04:48:59;;;;;;;8.57;7.87;;;24.40;56.90;25.10;100529.00;;;;5028791;28;20187;-43
2022/08/19 04:51:25;;;;;;;8.97;8.17;;;24.40;56.80;25.10;100527.00;;;;5028610;28;20194;-42
2022/08/19 04:53:52;;;;;;;9.40;8.67;;;24.40;57.00;25.10;100544.00;;;;5028656;28;20657;-43
2022/08/19 04:56:20;;;;;;;8.90;8.10;;;24.40;57.40;25.10;100547.00;;;;5043999;28;20696;-43
2022/08/19 04:58:46;;;;;;;8.43;7.80;;;24.30;57.40;25.10;100543.00;;;;5028458;28;20218;-43
2022/08/19 05:01:19;;;;;;;8.20;7.63;;;24.30;57.00;25.10;100548.00;;;;5028649;28;20230;-43
2022/08/19 05:03:45;;;;;;;10.23;8.17;;;24.30;56.90;25.10;100548.00;;;;5028816;28;20579;-43
2022/08/19 05:06:13;;;;;;;8.93;8.27;;;24.30;57.10;25.10;100552.00;;;;5044010;28;20188;-43
2022/08/19 05:08:42;;;;;;;8.83;8.03;;;24.30;57.30;25.00;100551.00;;;;5028406;28;20749;-44
2022/08/19 05:11:31;;;;;;;8.90;8.30;;;24.20;57.30;25.00;100558.00;;;;5028971;28;20802;-44
2022/08/19 05:13:57;;;;;;;8.97;8.27;;;24.20;57.60;25.00;100562.00;;;;5027933;28;20210;-44
2022/08/19 05:16:23;;;;;;;8.30;7.70;;;24.20;57.20;25.00;100551.00;;;;5027979;28;20269;-44
2022/08/19 05:24:18;;;;;;;9.90;9.20;;;24.20;56.90;24.90;100559.00;;;;5041334;28;20704;-44
2022/08/19 05:26:48;;;;;;;9.17;8.47;;;24.20;58.00;24.90;100560.00;;;;5027987;28;20178;-44
2022/08/19 05:29:16;;;;;;;10.63;7.67;;;24.10;58.00;24.90;100564.00;;;;5028192;28;20183;-44
2022/08/19 05:31:42;;;;;;;8.60;7.80;;;24.10;57.60;24.90;100566.00;;;;5028312;28;20297;-44
2022/08/19 05:34:07;;;;;;;9.07;8.37;;;24.10;57.60;24.90;100572.00;;;;5043572;28;20776;-44
2022/08/19 05:36:39;;;;;;;9.00;8.40;;;24.10;57.50;24.90;100580.00;;;;5028168;28;20190;-44
2022/08/19 05:39:05;;;;;;;8.13;7.53;;;24.10;58.30;24.90;100573.00;;;;5027933;28;20206;-44
2022/08/19 05:41:31;;;;;;;8.40;7.80;;;24.10;57.50;24.90;100573.00;;;;5028376;28;20230;-44
2022/08/19 05:43:57;;;;;;;8.80;8.10;;;24.10;57.30;24.90;100567.00;;;;5028105;28;20252;-44
2022/08/19 05:46:24;;;;;;;8.33;7.73;;;24.10;57.20;24.90;100570.00;;;;5027976;28;20183;-44
2022/08/19 05:48:49;;;;;;;8.47;7.73;;;24.10;57.20;24.90;100571.00;;;;5026948;28;20203;-44
2022/08/19 05:51:15;;;;;;;8.50;7.90;;;24.10;57.30;24.80;100574.00;;;;5028321;28;20663;-44
2022/08/19 05:53:41;;;;;;;8.13;7.60;;;24.10;57.30;24.80;100568.00;;;;5027884;28;20183;-44
2022/08/19 05:56:10;;;;;;;9.93;9.23;;;24.10;57.30;24.80;100573.00;;;;5027743;28;20262;-44
2022/08/19 05:58:36;;;;;;;9.77;8.97;;;24.10;57.30;24.80;100569.00;;;;5027357;28;20953;-44
2022/08/19 06:01:05;;;;;;;9.10;8.40;;;24.10;57.40;24.80;100568.00;;;;5042933;28;20828;-43
2022/08/19 06:03:34;;;;;;;9.20;8.60;;;24.10;57.50;24.80;100568.00;;;;5027807;28;20540;-42
2022/08/19 06:06:00;;;;;;;10.10;9.30;;;24.10;57.50;24.80;100574.00;;;;5027518;28;20741;-42
2022/08/19 06:08:26;;;;;;;10.03;9.27;;;24.10;57.70;24.80;100572.00;;;;5027536;28;20199;-42
2022/08/19 06:10:52;;;;;;;10.10;9.27;;;24.10;57.60;24.80;100568.00;;;;5027586;28;20170;-43
2022/08/19 06:13:19;;;;;;;10.40;9.70;;;24.10;58.30;24.80;100577.00;;;;5027749;28;20171;-42
2022/08/19 06:15:46;;;;;;;11.00;10.00;;;24.00;57.90;24.80;100576.00;;;;5027362;28;20274;-42
2022/08/19 06:18:13;;;;;;;10.80;9.90;;;24.00;58.50;24.80;100567.00;;;;5027177;28;20197;-43
2022/08/19 06:20:39;;;;;;;9.90;9.20;;;24.00;57.90;24.80;100558.00;;;;5026840;28;20809;-42
2022/08/19 06:23:05;;;;;;;9.70;9.00;;;24.00;58.00;24.80;100566.00;;;;5027633;28;20258;-44
2022/08/19 06:25:31;;;;;;;10.37;9.40;;;24.00;58.00;24.80;100493.00;;;;5026746;28;20262;-44
2022/08/19 06:27:57;;;;;;;10.83;9.93;;;24.00;57.90;24.80;100557.00;;;;5026951;28;20222;-43
2022/08/19 06:30:23;;;;;;;9.90;9.20;;;24.00;58.20;24.70;100567.00;;;;5027083;28;20953;-42
2022/08/19 06:32:48;;;;;;;10.30;9.50;;;24.00;58.20;24.70;100560.00;;;;5027185;28;20187;-44
2022/08/19 06:35:14;;;;;;;12.70;11.80;;;24.00;58.10;24.70;100568.00;;;;5026644;28;20179;-42
2022/08/19 06:37:40;;;;;;;15.43;14.13;;;24.00;58.50;24.70;100553.00;;;;5026588;28;20593;-44
2022/08/19 06:40:08;;;;;;;15.40;14.20;;;24.00;59.10;24.70;100557.00;;;;5027101;28;20528;-43
2022/08/19 06:42:34;;;;;;;18.80;17.13;;;24.00;58.90;24.70;100553.00;;;;5027118;28;20203;-43
2022/08/19 06:45:02;;;;;;;17.43;16.03;;;23.90;59.60;24.70;100559.00;;;;5026631;28;20182;-43
2022/08/19 06:47:28;;;;;;;15.33;13.93;;;23.90;59.40;24.70;100565.00;;;;5026378;28;20207;-43
2022/08/19 06:50:01;;;;;;;14.73;13.43;;;23.90;59.40;24.70;100562.00;;;;5026758;28;20171;-43
2022/08/19 06:52:28;;;;;;;15.43;14.23;;;23.90;59.50;24.70;100569.00;;;;5027284;28;20709;-43
2022/08/19 06:54:55;;;;;;;15.17;13.87;;;23.90;59.90;24.70;100565.00;;;;5026682;28;20531;-43
2022/08/19 06:57:21;;;;;;;23.43;21.20;;;23.90;59.50;24.70;100564.00;;;;5025911;28;20191;-43
2022/08/19 06:59:47;;;;;;;20.00;18.30;;;24.00;61.00;24.70;100559.00;;;;5026311;28;20179;-43
2022/08/19 07:02:12;;;;;;;15.20;13.90;;;23.90;60.50;24.60;100564.00;;;;5026827;28;20252;-44
2022/08/19 07:04:38;;;;;;;14.70;13.50;;;23.90;60.00;24.60;100577.00;;;;5026585;28;20202;-43
2022/08/19 07:07:11;;;;;;;20.63;18.70;;;23.90;59.90;24.60;100586.00;;;;5024589;28;20361;-42
2022/08/19 07:09:39;;;;;;;19.97;18.27;;;23.90;61.50;24.60;100575.00;;;;5041525;28;20170;-44
2022/08/19 07:12:06;;;;;;;21.70;19.90;;;23.90;61.30;24.60;100573.00;;;;5026243;28;20174;-44
2022/08/19 07:14:32;;;;;;;24.97;22.70;;;23.90;62.30;24.60;100580.00;;;;5026529;28;20193;-43
2022/08/19 07:16:58;;;;;;;24.60;22.53;;;23.80;63.00;24.60;100586.00;;;;5023695;28;20198;-42
2022/08/19 07:19:27;;;;;;;29.87;27.17;;;23.80;63.20;24.60;100591.00;;;;5026141;28;20178;-42
2022/08/19 07:21:53;;;;;;;28.17;25.57;;;23.80;64.60;24.60;100599.00;;;;5026326;28;20662;-44
2022/08/19 07:24:25;;;;;;;25.47;23.13;;;23.70;64.30;24.60;100603.00;;;;5025998;28;20728;-42
2022/08/19 07:26:53;;;;;;;27.00;24.80;;;23.80;64.20;24.60;100598.00;;;;5026205;28;20244;-44
2022/08/19 07:29:22;;;;;;;27.97;25.53;;;23.80;63.80;24.60;100607.00;;;;5026321;28;20576;-44
2022/08/19 07:31:51;;;;;;;25.50;23.20;;;23.70;65.30;24.50;100613.00;;;;5026290;28;20194;-47
2022/08/19 07:34:17;;;;;;;31.23;28.33;;;23.70;65.20;24.50;100605.00;;;;5026720;28;20189;-44
2022/08/19 07:36:43;;;;;;;26.40;24.20;;;23.60;66.50;24.50;100609.00;;;;5025998;28;20626;-43
2022/08/19 07:39:16;;;;;;;29.50;26.80;;;23.60;66.40;24.50;100623.00;;;;4944559;28;20172;-43
2022/08/19 07:41:42;;;;;;;24.77;22.57;;;23.60;66.60;24.50;100615.00;;;;5025617;28;20210;-44
2022/08/19 07:44:08;;;;;;;23.50;21.50;;;23.70;65.70;24.50;100623.00;;;;5026025;28;20182;-43
2022/08/19 07:46:37;;;;;;;27.30;24.83;;;23.70;65.20;24.40;100624.00;;;;5024715;28;20249;-43
2022/08/19 07:49:03;;;;;;;28.53;25.73;;;23.60;66.40;24.40;100625.00;;;;5023480;28;20218;-43
2022/08/19 07:51:29;;;;;;;28.07;25.70;;;23.60;67.30;24.40;100628.00;;;;5010728;28;20167;-43
2022/08/19 07:53:55;;;;;;;26.73;24.43;;;23.60;67.20;24.40;100634.00;;;;5017317;28;20246;-43
2022/08/19 07:56:21;;;;;;;27.80;25.40;;;23.50;67.70;24.40;100643.00;;;;5013922;28;20183;-43
2022/08/19 07:58:48;;;;;;;26.07;23.87;;;23.50;68.00;24.30;100634.00;;;;5037411;28;20317;-43
2022/08/19 08:01:20;;;;;;;27.47;24.97;;;23.50;68.00;24.30;100641.00;;;;5022027;28;20196;-43
2022/08/19 08:09:21;;;;;;;27.13;24.57;;;23.40;68.70;24.20;100641.00;;;;5005777;28;20234;-42
2022/08/19 08:11:51;;;;;;;24.87;22.77;;;23.40;68.80;24.20;100648.00;;;;5005170;28;20164;-44
2022/08/19 08:14:48;;;;;;;26.53;23.67;;;23.40;68.70;24.20;100652.00;;;;5005871;28;20740;-43
2022/08/19 08:17:15;;;;;;;27.27;24.77;;;23.30;68.90;24.10;100529.00;;;;5013272;28;20223;-44
2022/08/19 08:19:42;;;;;;;27.93;25.13;;;23.30;69.10;24.20;100655.00;;;;5025297;28;20270;-44
2022/08/19 08:22:08;;;;;;;24.17;21.87;;;23.30;69.20;24.20;100651.00;;;;5024944;28;20194;-43
2022/08/19 08:24:35;;;;;;;24.07;21.97;;;23.30;69.00;24.10;100652.00;;;;5025423;28;20660;-44
2022/08/19 08:27:01;;;;;;;21.07;19.13;;;23.40;69.20;24.10;100653.00;;;;5025101;28;20553;-43
2022/08/19 08:29:27;;;;;;;22.00;20.10;;;23.40;68.40;24.20;100664.00;;;;5025472;28;20173;-43
2022/08/19 08:31:53;;;;;;;20.63;18.87;;;23.40;68.50;24.20;100648.00;;;;5025132;28;20178;-43
2022/08/19 08:34:19;;;;;;;18.87;17.27;;;23.50;67.90;24.20;100650.00;;;;5011480;28;20815;-44
2022/08/19 08:36:46;;;;;;;21.57;19.70;;;23.50;67.80;24.20;100644.00;;;;5005200;28;20210;-44
2022/08/19 08:39:21;;;;;;;21.80;19.80;;;23.50;68.60;24.20;100645.00;;;;4959084;28;20184;-44
2022/08/19 08:42:04;;;;;;;20.10;18.30;;;23.40;68.00;24.10;100651.00;;;;5004495;28;20279;-44
2022/08/19 08:44:36;;;;;;;21.83;19.80;;;23.50;68.00;24.20;100650.00;;;;5005220;28;20160;-44
2022/08/19 08:47:04;;;;;;;21.30;19.30;;;23.40;68.20;24.20;100654.00;;;;5005270;28;20171;-44
2022/08/19 08:49:40;;;;;;;20.87;18.97;;;23.50;68.10;24.10;100645.00;;;;5004390;28;20175;-44
2022/08/19 08:52:28;;;;;;;18.50;16.80;;;23.50;68.50;24.10;100646.00;;;;5005024;28;20152;-44
2022/08/19 08:54:57;;;;;;;20.03;17.80;;;23.50;67.80;24.10;100641.00;;;;5004212;28;20184;-43
2022/08/19 08:57:53;;;;;;;19.07;17.37;;;23.50;67.70;24.10;100633.00;;;;5005052;28;20246;-43
2022/08/19 09:00:26;;;;;;;20.80;19.00;;;23.60;67.80;24.10;100631.00;;;;4997643;28;20183;-43
2022/08/19 09:02:53;;;;;;;21.63;19.40;;;23.60;67.50;24.10;100636.00;;;;5004231;28;20670;-43
2022/08/19 09:05:21;;;;;;;18.90;17.20;;;23.50;67.70;24.10;100629.00;;;;5003879;28;20757;-44
2022/08/19 09:08:06;;;;;;;19.03;17.40;;;23.50;67.70;24.10;100641.00;;;;5004039;28;20411;-43
2022/08/19 09:10:53;;;;;;;22.83;20.57;;;23.50;67.70;24.10;100642.00;;;;5003423;28;20160;-43
2022/08/19 09:13:51;;;;;;;23.70;21.53;;;23.50;68.10;24.10;100634.00;;;;5019056;28;20178;-43
2022/08/19 09:16:20;;;;;;;22.47;20.40;;;23.50;67.80;24.10;100636.00;;;;5005198;28;20539;-44
2022/08/19 09:18:53;;;;;;;20.47;18.67;;;23.50;68.20;24.10;100638.00;;;;5003788;28;20202;-43
2022/08/19 09:21:20;;;;;;;20.73;18.83;;;23.50;67.70;24.10;100639.00;;;;5004765;28;20901;-44
2022/08/19 09:23:46;;;;;;;19.77;18.03;;;23.50;68.10;24.10;100635.00;;;;5006344;28;20262;-43
2022/08/19 09:26:19;;;;;;;20.60;18.50;;;23.60;67.80;24.20;100618.00;;;;5008837;28;20172;-43
2022/08/19 09:28:46;;;;;;;22.60;20.60;;;23.60;67.70;24.20;100636.00;;;;5008604;28;20184;-44
2022/08/19 09:31:24;;;;;;;25.73;23.43;;;23.60;68.20;24.20;100630.00;;;;5008617;28;20193;-43
2022/08/19 09:33:50;;;;;;;27.30;24.70;;;23.60;68.20;24.20;100629.00;;;;5018731;28;20175;-42
2022/08/19 09:36:18;;;;;;;26.87;24.27;;;23.60;68.90;24.20;100638.00;;;;5028425;28;20171;-44
2022/08/19 09:38:44;;;;;;;26.13;23.73;;;23.60;68.80;24.20;100632.00;;;;4975365;28;20187;-45
2022/08/19 09:41:14;;;;;;;29.63;26.73;;;23.50;69.00;24.20;100626.00;;;;5028232;28;20248;-44
2022/08/19 09:43:41;;;;;;;27.40;24.80;;;23.60;68.90;24.20;100631.00;;;;5028316;28;20159;-44
2022/08/19 09:46:09;;;;;;;24.87;22.60;;;23.60;68.40;24.20;100631.00;;;;5027962;28;20171;-43
2022/08/19 09:48:36;;;;;;;23.40;21.27;;;23.60;68.40;24.20;100631.00;;;;5027012;28;20230;-44
2022/08/19 09:51:07;;;;;;;25.03;22.73;;;23.60;68.60;24.20;100631.00;;;;5027911;28;20171;-43
2022/08/19 09:53:34;;;;;;;23.37;21.30;;;23.60;67.90;24.20;100632.00;;;;5028265;28;20191;-43
2022/08/19 09:56:01;;;;;;;21.47;19.47;;;23.60;67.90;24.30;100637.00;;;;5026852;28;20621;-42
2022/08/19 09:58:27;;;;;;;18.57;16.87;;;23.70;67.90;24.30;100631.00;;;;5027409;28;20195;-42
2022/08/19 10:00:55;;;;;;;20.20;18.30;;;23.70;67.50;24.30;100623.00;;;;5027653;28;20179;-44
2022/08/19 10:03:20;;;;;;;20.77;18.80;;;23.70;67.00;24.30;100630.00;;;;5027604;28;20175;-44
2022/08/19 10:05:49;;;;;;;18.23;16.63;;;23.60;66.60;24.30;100628.00;;;;5026216;28;20163;-42
2022/08/19 10:08:25;;;;;;;17.33;15.63;;;23.60;66.20;24.30;100629.00;;;;5027223;28;20187;-44
2022/08/19 10:10:51;;;;;;;16.90;15.40;;;23.70;66.20;24.30;100628.00;;;;5027277;28;20203;-42
2022/08/19 10:13:24;;;;;;;18.43;16.80;;;23.70;66.10;24.30;100631.00;;;;5027100;28;20205;-43
2022/08/19 10:15:50;;;;;;;19.07;17.40;;;23.70;66.10;24.40;100636.00;;;;5027544;28;20240;-43
2022/08/19 10:18:17;;;;;;;20.47;18.07;;;23.80;66.20;24.40;100616.00;;;;5027060;28;20187;-43
2022/08/19 10:20:45;;;;;;;16.50;14.90;;;23.80;66.20;24.40;100620.00;;;;5027047;28;20155;-43
2022/08/19 10:23:11;;;;;;;16.57;14.93;;;23.80;65.60;24.40;100623.00;;;;5027673;28;20175;-43
2022/08/19 10:25:37;;;;;;;17.00;15.27;;;23.80;65.70;24.40;100610.00;;;;5027514;28;20220;-43
2022/08/19 10:28:04;;;;;;;17.10;15.37;;;23.80;65.10;24.40;100622.00;;;;5027285;28;20195;-44
2022/08/19 10:30:29;;;;;;;17.57;15.57;;;23.80;64.90;24.50;100592.00;;;;5026972;28;20190;-49
2022/08/19 10:32:55;;;;;;;15.97;14.40;;;23.90;65.00;24.50;100612.00;;;;5025247;28;20895;-43
2022/08/19 10:35:21;;;;;;;16.10;14.60;;;23.90;64.90;24.50;100617.00;;;;5007305;28;20250;-44
2022/08/19 10:37:47;;;;;;;15.30;13.80;;;24.00;64.80;24.60;100626.00;;;;4960253;28;20195;-43
2022/08/19 10:40:12;;;;;;;14.67;13.37;;;24.00;64.30;24.60;100623.00;;;;5006555;28;20259;-44
2022/08/19 10:42:38;;;;;;;15.53;13.93;;;24.00;64.30;24.60;100618.00;;;;5007321;28;20191;-42
2022/08/19 10:45:05;;;;;;;14.50;13.10;;;23.90;64.10;24.60;100633.00;;;;5007140;28;20187;-44
2022/08/19 10:47:33;;;;;;;13.73;12.40;;;24.00;64.10;24.60;100623.00;;;;5007056;28;20199;-44
2022/08/19 10:52:45;;;;;;;12.60;11.50;;;24.00;64.50;24.70;100611.00;;;;5009052;28;20190;-43
2022/08/19 10:57:55;;;;;;;13.40;12.27;;;24.10;64.30;24.50;100595.00;;;;5006769;28;20207;-42
2022/08/19 11:00:22;;;;;;;12.67;11.47;;;24.10;64.10;24.80;100601.00;;;;5006861;28;20645;-42
2022/08/19 11:02:48;;;;;;;13.20;12.00;;;24.10;64.10;24.80;100603.00;;;;5006882;28;20192;-44
2022/08/19 11:05:14;;;;;;;13.73;12.43;;;24.10;64.00;24.80;100602.00;;;;5006832;28;20172;-43